sensor_id;sensor_type;location;lat;lon;timestamp;temperature;humidity
21169;DHT22;10742;51.816;8.662;2023-06-14T00:01:06;23.30;42.80
21169;DHT22;10742;51.816;8.662;2023-06-14T00:04:09;23.20;42.70
21169;DHT22;10742;51.816;8.662;2023-06-14T00:07:12;23.20;42.70
21169;DHT22;10742;51.816;8.662;2023-06-14T00:10:16;23.10;42.80
21169;DHT22;10742;51.816;8.662;2023-06-14T00:13:19;23.10;42.90
21169;DHT22;10742;51.816;8.662;2023-06-14T00:16:21;23.10;43.00
21169;DHT22;10742;51.816;8.662;2023-06-14T00:19:25;23.10;43.10
21169;DHT22;10742;51.816;8.662;2023-06-14T00:22:28;23.00;43.10
21169;DHT22;10742;51.816;8.662;2023-06-14T00:25:31;23.00;43.20
21169;DHT22;10742;51.816;8.662;2023-06-14T00:28:33;22.90;43.40
21169;DHT22;10742;51.816;8.662;2023-06-14T00:31:36;22.80;43.50
21169;DHT22;10742;51.816;8.662;2023-06-14T00:34:38;22.80;43.60
21169;DHT22;10742;51.816;8.662;2023-06-14T00:37:43;22.70;43.80
21169;DHT22;10742;51.816;8.662;2023-06-14T00:40:45;22.60;43.80
21169;DHT22;10742;51.816;8.662;2023-06-14T00:43:48;22.50;44.10
21169;DHT22;10742;51.816;8.662;2023-06-14T00:46:50;22.50;44.20
21169;DHT22;10742;51.816;8.662;2023-06-14T00:49:54;22.40;44.30
21169;DHT22;10742;51.816;8.662;2023-06-14T00:52:59;22.30;44.50
21169;DHT22;10742;51.816;8.662;2023-06-14T00:56:02;22.20;44.60
21169;DHT22;10742;51.816;8.662;2023-06-14T00:59:05;22.10;44.80
21169;DHT22;10742;51.816;8.662;2023-06-14T01:02:08;22.10;45.00
21169;DHT22;10742;51.816;8.662;2023-06-14T01:05:11;22.00;45.20
21169;DHT22;10742;51.816;8.662;2023-06-14T01:08:25;21.90;45.30
21169;DHT22;10742;51.816;8.662;2023-06-14T01:11:36;21.80;46.40
21169;DHT22;10742;51.816;8.662;2023-06-14T01:14:41;21.90;45.70
21169;DHT22;10742;51.816;8.662;2023-06-14T01:17:45;21.90;45.70
21169;DHT22;10742;51.816;8.662;2023-06-14T01:20:49;21.80;45.70
21169;DHT22;10742;51.816;8.662;2023-06-14T01:23:52;21.80;45.90
21169;DHT22;10742;51.816;8.662;2023-06-14T01:26:55;21.80;45.90
21169;DHT22;10742;51.816;8.662;2023-06-14T01:29:58;21.80;45.90
21169;DHT22;10742;51.816;8.662;2023-06-14T01:33:03;21.70;46.00
21169;DHT22;10742;51.816;8.662;2023-06-14T01:36:08;21.70;46.00
21169;DHT22;10742;51.816;8.662;2023-06-14T01:39:14;21.70;46.10
21169;DHT22;10742;51.816;8.662;2023-06-14T01:42:20;21.70;46.30
21169;DHT22;10742;51.816;8.662;2023-06-14T01:45:23;21.60;46.40
21169;DHT22;10742;51.816;8.662;2023-06-14T01:48:26;21.60;46.40
21169;DHT22;10742;51.816;8.662;2023-06-14T01:51:28;21.50;46.60
21169;DHT22;10742;51.816;8.662;2023-06-14T01:54:31;21.40;46.70
21169;DHT22;10742;51.816;8.662;2023-06-14T01:57:33;21.40;46.80
21169;DHT22;10742;51.816;8.662;2023-06-14T02:00:36;21.40;47.10
21169;DHT22;10742;51.816;8.662;2023-06-14T02:03:38;21.40;47.10
21169;DHT22;10742;51.816;8.662;2023-06-14T02:06:42;21.30;47.20
21169;DHT22;10742;51.816;8.662;2023-06-14T02:09:44;21.30;47.50
21169;DHT22;10742;51.816;8.662;2023-06-14T02:12:47;21.30;47.50
21169;DHT22;10742;51.816;8.662;2023-06-14T02:15:49;21.30;47.60
21169;DHT22;10742;51.816;8.662;2023-06-14T02:18:56;21.20;47.70
21169;DHT22;10742;51.816;8.662;2023-06-14T02:21:59;21.20;47.80
21169;DHT22;10742;51.816;8.662;2023-06-14T02:25:02;21.20;47.80
21169;DHT22;10742;51.816;8.662;2023-06-14T02:28:05;21.20;47.90
21169;DHT22;10742;51.816;8.662;2023-06-14T02:31:07;21.10;48.00
21169;DHT22;10742;51.816;8.662;2023-06-14T02:34:10;21.10;48.10
21169;DHT22;10742;51.816;8.662;2023-06-14T02:37:13;21.10;48.30
21169;DHT22;10742;51.816;8.662;2023-06-14T02:40:15;21.10;48.40
21169;DHT22;10742;51.816;8.662;2023-06-14T02:43:18;21.10;48.50
21169;DHT22;10742;51.816;8.662;2023-06-14T02:46:20;21.00;48.60
21169;DHT22;10742;51.816;8.662;2023-06-14T02:49:24;20.90;48.60
21169;DHT22;10742;51.816;8.662;2023-06-14T02:52:27;20.90;48.70
21169;DHT22;10742;51.816;8.662;2023-06-14T02:55:29;20.90;48.80
21169;DHT22;10742;51.816;8.662;2023-06-14T02:58:32;20.90;48.90
21169;DHT22;10742;51.816;8.662;2023-06-14T03:01:35;20.80;49.00
21169;DHT22;10742;51.816;8.662;2023-06-14T03:04:46;20.80;49.90
21169;DHT22;10742;51.816;8.662;2023-06-14T03:07:51;20.70;49.30
21169;DHT22;10742;51.816;8.662;2023-06-14T03:10:56;20.60;49.50
21169;DHT22;10742;51.816;8.662;2023-06-14T03:14:00;20.60;49.70
21169;DHT22;10742;51.816;8.662;2023-06-14T03:17:03;20.50;49.70
21169;DHT22;10742;51.816;8.662;2023-06-14T03:20:09;20.50;49.80
21169;DHT22;10742;51.816;8.662;2023-06-14T03:23:12;20.40;49.70
21169;DHT22;10742;51.816;8.662;2023-06-14T03:26:15;20.30;49.80
21169;DHT22;10742;51.816;8.662;2023-06-14T03:29:22;20.30;49.90
21169;DHT22;10742;51.816;8.662;2023-06-14T03:32:25;20.20;50.10
21169;DHT22;10742;51.816;8.662;2023-06-14T03:35:28;20.10;50.30
21169;DHT22;10742;51.816;8.662;2023-06-14T03:38:31;20.10;50.50
21169;DHT22;10742;51.816;8.662;2023-06-14T03:41:34;20.00;50.60
21169;DHT22;10742;51.816;8.662;2023-06-14T03:44:38;20.00;50.80
21169;DHT22;10742;51.816;8.662;2023-06-14T03:47:40;20.00;50.90
21169;DHT22;10742;51.816;8.662;2023-06-14T03:50:43;20.00;50.90
21169;DHT22;10742;51.816;8.662;2023-06-14T03:53:47;19.90;50.90
21169;DHT22;10742;51.816;8.662;2023-06-14T03:57:01;19.90;50.90
21169;DHT22;10742;51.816;8.662;2023-06-14T04:00:04;19.90;50.90
21169;DHT22;10742;51.816;8.662;2023-06-14T04:03:15;19.80;51.20
21169;DHT22;10742;51.816;8.662;2023-06-14T04:06:18;19.80;51.30
21169;DHT22;10742;51.816;8.662;2023-06-14T04:09:23;19.70;51.50
21169;DHT22;10742;51.816;8.662;2023-06-14T04:12:26;19.60;51.70
21169;DHT22;10742;51.816;8.662;2023-06-14T04:15:29;19.60;51.80
21169;DHT22;10742;51.816;8.662;2023-06-14T04:18:33;19.50;52.40
21169;DHT22;10742;51.816;8.662;2023-06-14T04:21:35;19.50;52.80
21169;DHT22;10742;51.816;8.662;2023-06-14T04:24:39;19.60;52.80
21169;DHT22;10742;51.816;8.662;2023-06-14T04:27:46;19.60;52.90
21169;DHT22;10742;51.816;8.662;2023-06-14T04:30:49;19.60;53.10
21169;DHT22;10742;51.816;8.662;2023-06-14T04:33:54;19.60;53.20
21169;DHT22;10742;51.816;8.662;2023-06-14T04:36:58;19.70;53.40
21169;DHT22;10742;51.816;8.662;2023-06-14T04:40:07;19.70;53.40
21169;DHT22;10742;51.816;8.662;2023-06-14T04:43:12;19.80;53.40
21169;DHT22;10742;51.816;8.662;2023-06-14T04:46:16;19.80;53.40
21169;DHT22;10742;51.816;8.662;2023-06-14T04:49:19;19.90;53.40
21169;DHT22;10742;51.816;8.662;2023-06-14T04:52:22;20.00;53.50
21169;DHT22;10742;51.816;8.662;2023-06-14T04:55:25;20.10;53.50
21169;DHT22;10742;51.816;8.662;2023-06-14T04:58:28;20.20;53.70
21169;DHT22;10742;51.816;8.662;2023-06-14T05:01:32;20.20;53.50
21169;DHT22;10742;51.816;8.662;2023-06-14T05:04:35;20.30;53.70
21169;DHT22;10742;51.816;8.662;2023-06-14T05:07:41;20.40;53.70
21169;DHT22;10742;51.816;8.662;2023-06-14T05:10:44;20.50;53.70
21169;DHT22;10742;51.816;8.662;2023-06-14T05:13:47;20.60;53.90
21169;DHT22;10742;51.816;8.662;2023-06-14T05:16:49;20.80;53.80
21169;DHT22;10742;51.816;8.662;2023-06-14T05:19:52;20.90;53.70
21169;DHT22;10742;51.816;8.662;2023-06-14T05:22:55;21.10;53.70
21169;DHT22;10742;51.816;8.662;2023-06-14T05:25:59;21.20;53.40
21169;DHT22;10742;51.816;8.662;2023-06-14T05:29:02;21.40;53.50
21169;DHT22;10742;51.816;8.662;2023-06-14T05:32:05;21.60;53.50
21169;DHT22;10742;51.816;8.662;2023-06-14T05:35:08;21.80;53.20
21169;DHT22;10742;51.816;8.662;2023-06-14T05:38:11;22.00;52.90
21169;DHT22;10742;51.816;8.662;2023-06-14T05:41:13;22.30;52.80
21169;DHT22;10742;51.816;8.662;2023-06-14T05:44:16;22.40;51.80
21169;DHT22;10742;51.816;8.662;2023-06-14T05:47:18;22.60;51.50
21169;DHT22;10742;51.816;8.662;2023-06-14T05:50:21;22.80;51.30
21169;DHT22;10742;51.816;8.662;2023-06-14T05:53:24;22.90;51.00
21169;DHT22;10742;51.816;8.662;2023-06-14T05:56:26;23.10;50.80
21169;DHT22;10742;51.816;8.662;2023-06-14T05:59:29;23.20;50.50
21169;DHT22;10742;51.816;8.662;2023-06-14T06:02:31;23.30;50.30
21169;DHT22;10742;51.816;8.662;2023-06-14T06:05:34;23.50;50.10
21169;DHT22;10742;51.816;8.662;2023-06-14T06:08:37;23.70;49.80
21169;DHT22;10742;51.816;8.662;2023-06-14T06:11:39;23.80;49.30
21169;DHT22;10742;51.816;8.662;2023-06-14T06:14:50;24.00;48.90
21169;DHT22;10742;51.816;8.662;2023-06-14T06:17:52;24.10;48.30
21169;DHT22;10742;51.816;8.662;2023-06-14T06:20:57;24.20;48.00
21169;DHT22;10742;51.816;8.662;2023-06-14T06:23:59;24.30;47.90
21169;DHT22;10742;51.816;8.662;2023-06-14T06:27:05;24.30;47.80
21169;DHT22;10742;51.816;8.662;2023-06-14T06:30:10;24.40;47.50
21169;DHT22;10742;51.816;8.662;2023-06-14T06:33:13;24.40;47.60
21169;DHT22;10742;51.816;8.662;2023-06-14T06:36:16;24.50;47.50
21169;DHT22;10742;51.816;8.662;2023-06-14T06:39:19;24.50;47.40
21169;DHT22;10742;51.816;8.662;2023-06-14T06:42:21;24.60;47.40
21169;DHT22;10742;51.816;8.662;2023-06-14T06:45:25;24.60;47.20
21169;DHT22;10742;51.816;8.662;2023-06-14T06:48:28;24.70;47.10
21169;DHT22;10742;51.816;8.662;2023-06-14T06:51:31;24.70;46.70
21169;DHT22;10742;51.816;8.662;2023-06-14T06:54:34;24.80;46.70
21169;DHT22;10742;51.816;8.662;2023-06-14T06:57:37;24.80;46.70
21169;DHT22;10742;51.816;8.662;2023-06-14T07:00:39;24.80;46.80
21169;DHT22;10742;51.816;8.662;2023-06-14T07:03:42;24.90;47.00
21169;DHT22;10742;51.816;8.662;2023-06-14T07:06:46;25.00;46.90
21169;DHT22;10742;51.816;8.662;2023-06-14T07:09:49;25.20;47.00
21169;DHT22;10742;51.816;8.662;2023-06-14T07:12:52;25.30;47.00
21169;DHT22;10742;51.816;8.662;2023-06-14T07:15:58;25.50;46.90
21169;DHT22;10742;51.816;8.662;2023-06-14T07:19:02;25.60;46.00
21169;DHT22;10742;51.816;8.662;2023-06-14T07:22:05;25.70;46.00
21169;DHT22;10742;51.816;8.662;2023-06-14T07:25:09;25.70;45.80
21169;DHT22;10742;51.816;8.662;2023-06-14T07:28:12;25.80;45.80
21169;DHT22;10742;51.816;8.662;2023-06-14T07:31:15;25.90;46.00
21169;DHT22;10742;51.816;8.662;2023-06-14T07:34:18;25.90;45.70
21169;DHT22;10742;51.816;8.662;2023-06-14T07:37:20;25.90;45.70
21169;DHT22;10742;51.816;8.662;2023-06-14T07:40:23;26.00;45.70
21169;DHT22;10742;51.816;8.662;2023-06-14T07:43:25;26.00;46.00
21169;DHT22;10742;51.816;8.662;2023-06-14T07:46:27;26.10;46.40
21169;DHT22;10742;51.816;8.662;2023-06-14T07:49:30;26.20;45.30
21169;DHT22;10742;51.816;8.662;2023-06-14T07:52:33;26.20;45.50
21169;DHT22;10742;51.816;8.662;2023-06-14T07:55:35;26.30;44.50
21169;DHT22;10742;51.816;8.662;2023-06-14T07:58:47;26.30;44.50
21169;DHT22;10742;51.816;8.662;2023-06-14T08:01:49;26.20;44.60
21169;DHT22;10742;51.816;8.662;2023-06-14T08:04:52;26.30;44.70
21169;DHT22;10742;51.816;8.662;2023-06-14T08:07:55;26.30;44.40
21169;DHT22;10742;51.816;8.662;2023-06-14T08:10:57;26.40;44.50
21169;DHT22;10742;51.816;8.662;2023-06-14T08:14:00;26.40;44.70
21169;DHT22;10742;51.816;8.662;2023-06-14T08:17:03;26.50;44.60
21169;DHT22;10742;51.816;8.662;2023-06-14T08:20:06;26.60;44.40
21169;DHT22;10742;51.816;8.662;2023-06-14T08:23:09;26.60;44.30
21169;DHT22;10742;51.816;8.662;2023-06-14T08:26:12;26.70;44.00
21169;DHT22;10742;51.816;8.662;2023-06-14T08:29:15;26.70;44.00
21169;DHT22;10742;51.816;8.662;2023-06-14T08:32:17;26.70;44.20
21169;DHT22;10742;51.816;8.662;2023-06-14T08:35:20;26.80;44.30
21169;DHT22;10742;51.816;8.662;2023-06-14T08:38:22;26.90;44.30
21169;DHT22;10742;51.816;8.662;2023-06-14T08:41:25;27.00;44.00
21169;DHT22;10742;51.816;8.662;2023-06-14T08:44:30;27.00;43.80
21169;DHT22;10742;51.816;8.662;2023-06-14T08:47:32;27.10;43.70
21169;DHT22;10742;51.816;8.662;2023-06-14T08:50:40;27.10;43.80
21169;DHT22;10742;51.816;8.662;2023-06-14T08:53:44;27.20;43.50
21169;DHT22;10742;51.816;8.662;2023-06-14T08:56:46;27.20;43.30
21169;DHT22;10742;51.816;8.662;2023-06-14T08:59:51;27.30;43.40
21169;DHT22;10742;51.816;8.662;2023-06-14T09:02:57;27.30;43.40
21169;DHT22;10742;51.816;8.662;2023-06-14T09:06:00;27.30;43.30
21169;DHT22;10742;51.816;8.662;2023-06-14T09:09:03;27.30;43.30
21169;DHT22;10742;51.816;8.662;2023-06-14T09:12:08;27.40;43.40
21169;DHT22;10742;51.816;8.662;2023-06-14T09:15:13;27.40;43.20
21169;DHT22;10742;51.816;8.662;2023-06-14T09:18:16;27.40;43.00
21169;DHT22;10742;51.816;8.662;2023-06-14T09:21:19;27.40;42.80
21169;DHT22;10742;51.816;8.662;2023-06-14T09:24:26;27.30;42.90
21169;DHT22;10742;51.816;8.662;2023-06-14T09:27:29;27.30;43.40
21169;DHT22;10742;51.816;8.662;2023-06-14T09:30:32;27.30;43.50
21169;DHT22;10742;51.816;8.662;2023-06-14T09:33:34;27.40;43.30
21169;DHT22;10742;51.816;8.662;2023-06-14T09:36:39;27.40;43.30
21169;DHT22;10742;51.816;8.662;2023-06-14T09:39:50;27.50;43.30
21169;DHT22;10742;51.816;8.662;2023-06-14T09:42:53;27.60;43.10
21169;DHT22;10742;51.816;8.662;2023-06-14T09:45:56;27.70;42.70
21169;DHT22;10742;51.816;8.662;2023-06-14T09:48:59;27.90;42.80
21169;DHT22;10742;51.816;8.662;2023-06-14T09:52:03;28.00;42.80
21169;DHT22;10742;51.816;8.662;2023-06-14T09:55:12;28.10;42.80
21169;DHT22;10742;51.816;8.662;2023-06-14T09:58:16;28.20;42.10
21169;DHT22;10742;51.816;8.662;2023-06-14T10:01:23;28.40;42.10
21169;DHT22;10742;51.816;8.662;2023-06-14T10:04:30;28.60;42.10
21169;DHT22;10742;51.816;8.662;2023-06-14T10:07:59;28.70;41.90
21169;DHT22;10742;51.816;8.662;2023-06-14T10:11:02;28.80;41.20
21169;DHT22;10742;51.816;8.662;2023-06-14T10:14:05;29.00;40.90
21169;DHT22;10742;51.816;8.662;2023-06-14T10:17:10;29.00;40.90
21169;DHT22;10742;51.816;8.662;2023-06-14T10:23:30;29.10;40.70
21169;DHT22;10742;51.816;8.662;2023-06-14T10:26:33;29.20;40.90
21169;DHT22;10742;51.816;8.662;2023-06-14T10:33:05;29.40;40.50
21169;DHT22;10742;51.816;8.662;2023-06-14T10:39:25;29.40;39.80
21169;DHT22;10742;51.816;8.662;2023-06-14T10:42:31;29.40;40.10
21169;DHT22;10742;51.816;8.662;2023-06-14T10:45:35;29.40;39.60
21169;DHT22;10742;51.816;8.662;2023-06-14T10:48:44;29.40;39.60
21169;DHT22;10742;51.816;8.662;2023-06-14T10:51:51;29.40;40.00
21169;DHT22;10742;51.816;8.662;2023-06-14T10:55:08;29.40;40.00
21169;DHT22;10742;51.816;8.662;2023-06-14T10:58:17;29.50;40.20
21169;DHT22;10742;51.816;8.662;2023-06-14T11:01:46;29.60;40.10
21169;DHT22;10742;51.816;8.662;2023-06-14T11:04:52;29.60;40.00
21169;DHT22;10742;51.816;8.662;2023-06-14T11:08:01;29.80;40.00
21169;DHT22;10742;51.816;8.662;2023-06-14T11:11:07;29.80;39.90
21169;DHT22;10742;51.816;8.662;2023-06-14T11:14:10;29.90;39.70
21169;DHT22;10742;51.816;8.662;2023-06-14T11:17:13;29.90;39.20
21169;DHT22;10742;51.816;8.662;2023-06-14T11:20:16;29.90;39.20
21169;DHT22;10742;51.816;8.662;2023-06-14T11:23:21;29.80;39.10
21169;DHT22;10742;51.816;8.662;2023-06-14T11:26:29;29.70;39.30
21169;DHT22;10742;51.816;8.662;2023-06-14T11:29:32;29.70;39.50
21169;DHT22;10742;51.816;8.662;2023-06-14T11:32:38;29.70;39.40
21169;DHT22;10742;51.816;8.662;2023-06-14T11:35:41;29.70;39.20
21169;DHT22;10742;51.816;8.662;2023-06-14T11:38:44;29.50;39.30
21169;DHT22;10742;51.816;8.662;2023-06-14T11:41:47;29.40;39.30
21169;DHT22;10742;51.816;8.662;2023-06-14T11:44:49;29.30;39.50
21169;DHT22;10742;51.816;8.662;2023-06-14T11:47:55;29.20;39.90
21169;DHT22;10742;51.816;8.662;2023-06-14T11:50:59;29.20;39.90
21169;DHT22;10742;51.816;8.662;2023-06-14T11:54:02;29.20;39.90
21169;DHT22;10742;51.816;8.662;2023-06-14T11:57:09;29.30;40.10
21169;DHT22;10742;51.816;8.662;2023-06-14T12:00:13;29.30;39.80
21169;DHT22;10742;51.816;8.662;2023-06-14T12:03:17;29.40;40.10
21169;DHT22;10742;51.816;8.662;2023-06-14T12:06:29;29.50;39.80
21169;DHT22;10742;51.816;8.662;2023-06-14T12:09:34;29.50;39.50
21169;DHT22;10742;51.816;8.662;2023-06-14T12:12:38;29.50;39.40
21169;DHT22;10742;51.816;8.662;2023-06-14T12:15:41;29.40;39.30
21169;DHT22;10742;51.816;8.662;2023-06-14T12:18:44;29.30;39.20
21169;DHT22;10742;51.816;8.662;2023-06-14T12:21:47;29.30;39.40
21169;DHT22;10742;51.816;8.662;2023-06-14T12:24:54;29.40;39.70
21169;DHT22;10742;51.816;8.662;2023-06-14T12:28:06;29.40;39.40
21169;DHT22;10742;51.816;8.662;2023-06-14T12:31:09;29.40;39.00
21169;DHT22;10742;51.816;8.662;2023-06-14T12:34:11;29.40;39.20
21169;DHT22;10742;51.816;8.662;2023-06-14T12:37:14;29.30;39.10
21169;DHT22;10742;51.816;8.662;2023-06-14T12:40:20;29.30;39.00
21169;DHT22;10742;51.816;8.662;2023-06-14T12:43:23;29.30;39.30
21169;DHT22;10742;51.816;8.662;2023-06-14T12:46:25;29.30;39.40
21169;DHT22;10742;51.816;8.662;2023-06-14T12:49:28;29.30;39.30
21169;DHT22;10742;51.816;8.662;2023-06-14T12:52:31;29.30;39.30
21169;DHT22;10742;51.816;8.662;2023-06-14T12:55:33;29.30;39.40
21169;DHT22;10742;51.816;8.662;2023-06-14T12:58:36;29.40;39.40
21169;DHT22;10742;51.816;8.662;2023-06-14T13:01:38;29.40;39.30
21169;DHT22;10742;51.816;8.662;2023-06-14T13:04:42;29.40;39.30
21169;DHT22;10742;51.816;8.662;2023-06-14T13:07:45;29.40;39.20
21169;DHT22;10742;51.816;8.662;2023-06-14T13:10:48;29.40;39.40
21169;DHT22;10742;51.816;8.662;2023-06-14T13:13:51;29.40;39.70
21169;DHT22;10742;51.816;8.662;2023-06-14T13:16:54;29.50;40.30
21169;DHT22;10742;51.816;8.662;2023-06-14T13:19:57;29.60;39.50
21169;DHT22;10742;51.816;8.662;2023-06-14T13:23:00;29.60;40.10
21169;DHT22;10742;51.816;8.662;2023-06-14T13:26:04;29.60;39.10
21169;DHT22;10742;51.816;8.662;2023-06-14T13:29:07;29.60;39.20
21169;DHT22;10742;51.816;8.662;2023-06-14T13:32:09;29.60;39.30
21169;DHT22;10742;51.816;8.662;2023-06-14T13:35:12;29.60;39.50
21169;DHT22;10742;51.816;8.662;2023-06-14T13:38:15;29.50;39.40
21169;DHT22;10742;51.816;8.662;2023-06-14T13:41:17;29.60;39.40
21169;DHT22;10742;51.816;8.662;2023-06-14T13:44:20;29.60;39.40
21169;DHT22;10742;51.816;8.662;2023-06-14T13:47:23;29.60;39.20
21169;DHT22;10742;51.816;8.662;2023-06-14T13:50:26;29.60;39.10
21169;DHT22;10742;51.816;8.662;2023-06-14T13:53:28;29.60;39.20
21169;DHT22;10742;51.816;8.662;2023-06-14T13:56:31;29.60;39.10
21169;DHT22;10742;51.816;8.662;2023-06-14T13:59:33;29.60;39.10
21169;DHT22;10742;51.816;8.662;2023-06-14T14:02:36;29.60;39.40
21169;DHT22;10742;51.816;8.662;2023-06-14T14:05:38;29.60;39.20
21169;DHT22;10742;51.816;8.662;2023-06-14T14:08:42;29.60;39.20
21169;DHT22;10742;51.816;8.662;2023-06-14T14:11:44;29.60;39.10
21169;DHT22;10742;51.816;8.662;2023-06-14T14:14:47;29.50;39.30
21169;DHT22;10742;51.816;8.662;2023-06-14T14:17:50;29.50;39.20
21169;DHT22;10742;51.816;8.662;2023-06-14T14:20:53;29.50;39.10
21169;DHT22;10742;51.816;8.662;2023-06-14T14:23:55;29.50;39.10
21169;DHT22;10742;51.816;8.662;2023-06-14T14:26:58;29.50;39.20
21169;DHT22;10742;51.816;8.662;2023-06-14T14:30:03;29.50;39.40
21169;DHT22;10742;51.816;8.662;2023-06-14T14:33:06;29.50;39.30
21169;DHT22;10742;51.816;8.662;2023-06-14T14:36:09;29.40;39.40
21169;DHT22;10742;51.816;8.662;2023-06-14T14:39:11;29.40;39.50
21169;DHT22;10742;51.816;8.662;2023-06-14T14:42:14;29.40;39.70
21169;DHT22;10742;51.816;8.662;2023-06-14T14:45:17;29.50;39.60
21169;DHT22;10742;51.816;8.662;2023-06-14T14:48:20;29.40;39.40
21169;DHT22;10742;51.816;8.662;2023-06-14T14:51:22;29.30;39.30
21169;DHT22;10742;51.816;8.662;2023-06-14T14:54:25;29.20;39.60
21169;DHT22;10742;51.816;8.662;2023-06-14T14:57:28;29.10;39.70
21169;DHT22;10742;51.816;8.662;2023-06-14T15:00:32;29.10;39.80
21169;DHT22;10742;51.816;8.662;2023-06-14T15:03:34;29.00;39.60
21169;DHT22;10742;51.816;8.662;2023-06-14T15:06:41;29.00;39.70
21169;DHT22;10742;51.816;8.662;2023-06-14T15:09:44;29.00;39.90
21169;DHT22;10742;51.816;8.662;2023-06-14T15:12:46;29.00;39.90
21169;DHT22;10742;51.816;8.662;2023-06-14T15:15:49;29.10;40.10
21169;DHT22;10742;51.816;8.662;2023-06-14T15:18:51;29.10;40.20
21169;DHT22;10742;51.816;8.662;2023-06-14T15:21:54;29.10;40.20
21169;DHT22;10742;51.816;8.662;2023-06-14T15:24:57;29.10;40.20
21169;DHT22;10742;51.816;8.662;2023-06-14T15:27:59;29.20;40.30
21169;DHT22;10742;51.816;8.662;2023-06-14T15:31:04;29.20;40.40
21169;DHT22;10742;51.816;8.662;2023-06-14T15:34:07;29.20;40.20
21169;DHT22;10742;51.816;8.662;2023-06-14T15:37:09;29.20;40.00
21169;DHT22;10742;51.816;8.662;2023-06-14T15:40:12;29.30;40.10
21169;DHT22;10742;51.816;8.662;2023-06-14T15:43:14;29.30;40.10
21169;DHT22;10742;51.816;8.662;2023-06-14T15:46:19;29.20;40.00
21169;DHT22;10742;51.816;8.662;2023-06-14T15:49:23;29.20;40.00
21169;DHT22;10742;51.816;8.662;2023-06-14T15:52:25;29.20;40.20
21169;DHT22;10742;51.816;8.662;2023-06-14T15:55:28;29.20;39.90
21169;DHT22;10742;51.816;8.662;2023-06-14T15:58:30;29.10;40.00
21169;DHT22;10742;51.816;8.662;2023-06-14T16:01:33;29.10;40.00
21169;DHT22;10742;51.816;8.662;2023-06-14T16:04:36;29.00;40.10
21169;DHT22;10742;51.816;8.662;2023-06-14T16:07:38;29.00;40.20
21169;DHT22;10742;51.816;8.662;2023-06-14T16:10:41;29.00;40.30
21169;DHT22;10742;51.816;8.662;2023-06-14T16:13:45;29.00;40.50
21169;DHT22;10742;51.816;8.662;2023-06-14T16:16:47;29.00;40.70
21169;DHT22;10742;51.816;8.662;2023-06-14T16:19:52;28.90;40.90
21169;DHT22;10742;51.816;8.662;2023-06-14T16:22:54;28.70;41.10
21169;DHT22;10742;51.816;8.662;2023-06-14T16:25:57;28.60;41.30
21169;DHT22;10742;51.816;8.662;2023-06-14T16:29:00;28.50;41.70
21169;DHT22;10742;51.816;8.662;2023-06-14T16:32:02;28.40;41.90
21169;DHT22;10742;51.816;8.662;2023-06-14T16:35:06;28.30;41.80
21169;DHT22;10742;51.816;8.662;2023-06-14T16:38:09;28.30;41.80
21169;DHT22;10742;51.816;8.662;2023-06-14T16:41:12;28.30;41.80
21169;DHT22;10742;51.816;8.662;2023-06-14T16:44:15;28.30;41.70
21169;DHT22;10742;51.816;8.662;2023-06-14T16:47:18;28.30;41.70
21169;DHT22;10742;51.816;8.662;2023-06-14T16:50:20;28.30;41.60
21169;DHT22;10742;51.816;8.662;2023-06-14T16:53:23;28.20;41.50
21169;DHT22;10742;51.816;8.662;2023-06-14T16:56:25;28.20;41.60
21169;DHT22;10742;51.816;8.662;2023-06-14T16:59:28;28.20;41.50
21169;DHT22;10742;51.816;8.662;2023-06-14T17:02:31;28.20;41.50
21169;DHT22;10742;51.816;8.662;2023-06-14T17:05:34;28.20;41.40
21169;DHT22;10742;51.816;8.662;2023-06-14T17:08:37;28.20;41.40
21169;DHT22;10742;51.816;8.662;2023-06-14T17:11:40;28.20;41.50
21169;DHT22;10742;51.816;8.662;2023-06-14T17:14:42;28.20;41.70
21169;DHT22;10742;51.816;8.662;2023-06-14T17:17:46;28.20;41.70
21169;DHT22;10742;51.816;8.662;2023-06-14T17:20:49;28.20;41.90
21169;DHT22;10742;51.816;8.662;2023-06-14T17:23:52;28.20;42.10
21169;DHT22;10742;51.816;8.662;2023-06-14T17:26:55;28.20;42.10
21169;DHT22;10742;51.816;8.662;2023-06-14T17:29:59;28.20;42.20
21169;DHT22;10742;51.816;8.662;2023-06-14T17:33:07;28.20;42.20
21169;DHT22;10742;51.816;8.662;2023-06-14T17:36:09;28.30;42.30
21169;DHT22;10742;51.816;8.662;2023-06-14T17:39:14;28.30;42.60
21169;DHT22;10742;51.816;8.662;2023-06-14T17:42:17;28.30;42.70
21169;DHT22;10742;51.816;8.662;2023-06-14T17:45:19;28.20;42.50
21169;DHT22;10742;51.816;8.662;2023-06-14T17:48:22;28.30;42.60
21169;DHT22;10742;51.816;8.662;2023-06-14T17:51:24;28.20;42.60
21169;DHT22;10742;51.816;8.662;2023-06-14T17:54:27;28.10;42.60
21169;DHT22;10742;51.816;8.662;2023-06-14T17:57:29;28.10;42.70
21169;DHT22;10742;51.816;8.662;2023-06-14T18:00:32;28.10;42.80
21169;DHT22;10742;51.816;8.662;2023-06-14T18:03:34;28.10;42.80
21169;DHT22;10742;51.816;8.662;2023-06-14T18:06:37;28.00;42.80
21169;DHT22;10742;51.816;8.662;2023-06-14T18:09:39;27.90;43.00
21169;DHT22;10742;51.816;8.662;2023-06-14T18:12:42;27.80;43.00
21169;DHT22;10742;51.816;8.662;2023-06-14T18:15:44;27.70;43.20
21169;DHT22;10742;51.816;8.662;2023-06-14T18:18:47;27.70;43.20
21169;DHT22;10742;51.816;8.662;2023-06-14T18:21:51;27.60;43.10
21169;DHT22;10742;51.816;8.662;2023-06-14T18:24:53;27.60;43.20
21169;DHT22;10742;51.816;8.662;2023-06-14T18:27:56;27.50;43.30
21169;DHT22;10742;51.816;8.662;2023-06-14T18:30:58;27.50;43.30
21169;DHT22;10742;51.816;8.662;2023-06-14T18:34:01;27.40;43.20
21169;DHT22;10742;51.816;8.662;2023-06-14T18:37:05;27.40;43.30
21169;DHT22;10742;51.816;8.662;2023-06-14T18:40:08;27.40;43.40
21169;DHT22;10742;51.816;8.662;2023-06-14T18:43:11;27.30;43.50
21169;DHT22;10742;51.816;8.662;2023-06-14T18:46:14;27.30;43.50
21169;DHT22;10742;51.816;8.662;2023-06-14T18:49:17;27.30;43.50
21169;DHT22;10742;51.816;8.662;2023-06-14T18:52:19;27.20;43.40
21169;DHT22;10742;51.816;8.662;2023-06-14T18:55:22;27.20;43.50
21169;DHT22;10742;51.816;8.662;2023-06-14T18:58:25;27.10;43.60
21169;DHT22;10742;51.816;8.662;2023-06-14T19:01:27;27.00;43.80
21169;DHT22;10742;51.816;8.662;2023-06-14T19:04:30;26.90;44.00
21169;DHT22;10742;51.816;8.662;2023-06-14T19:07:32;26.90;44.20
21169;DHT22;10742;51.816;8.662;2023-06-14T19:10:35;26.80;44.40
21169;DHT22;10742;51.816;8.662;2023-06-14T19:13:38;26.70;44.40
21169;DHT22;10742;51.816;8.662;2023-06-14T19:16:42;26.60;44.40
21169;DHT22;10742;51.816;8.662;2023-06-14T19:19:45;26.60;44.60
21169;DHT22;10742;51.816;8.662;2023-06-14T19:22:48;26.50;44.80
21169;DHT22;10742;51.816;8.662;2023-06-14T19:25:50;26.40;45.00
21169;DHT22;10742;51.816;8.662;2023-06-14T19:28:54;26.30;45.10